Terminal Aerodrome Forecast
Issued by NWS

Home | Current Version | Previous Version | Graphics & Text | Print | Product List | Glossary On
Versions: 1 2 3 4 5 6 7 8 9 10 11 12 13 14 15 16 17 18 19 20 21 22
000
FTUS43 KLSX 191400 AAB
TAFSUS
TAF AMD
KSUS 191431Z 1915/2012 VRB03KT 5SM BR SCT020
     FM191500 20006KT P6SM SCT120
     FM201100 24005KT P6SM BKN050=

USA.gov is the U.S. government's official web portal to all federal, state and local government web resources and services.